Time;durP1;ratioP1;P1;durP2;ratioP2;P2;SDS_P1;SDS_P2;PMS_P1;PMS_P2;Temp;Humidity;BMP_temperature;BMP_pressure;BME280_temperature;BME280_humidity;BME280_pressure;Samples;Min_cycle;Max_cycle;Signal;HPM_P1;HPM_P2
2023/09/19 00:00:19;;;;;;;;;;;;;;;;;;5002955;28;5120;-59
2023/09/19 00:02:47;;;;;;;;;;;;;;;;;;5007348;28;4630;-59
2023/09/19 00:05:12;;;;;;;;;;;;;;;;;;5004660;28;2209;-60
2023/09/19 00:07:38;;;;;;;;;;;;;;;;;;4995950;28;5155;-59
2023/09/19 00:10:04;;;;;;;;;;;;;;;;;;5000740;28;4652;-59
2023/09/19 00:12:29;;;;;;;;;;;;;;;;;;5001714;28;5463;-59
2023/09/19 00:14:56;;;;;;;;;;;;;;;;;;5002041;28;5238;-59
2023/09/19 00:17:21;;;;;;;;;;;;;;;;;;4999218;28;1346;-59
2023/09/19 00:19:51;;;;;;;;;;;;;;;;;;4987841;28;4923;-59
2023/09/19 00:22:18;;;;;;;;;;;;;;;;;;5004806;28;4453;-59
2023/09/19 00:24:44;;;;;;;;;;;;;;;;;;5001434;28;5041;-59
2023/09/19 00:27:09;;;;;;;;;;;;;;;;;;5003073;28;4592;-59
2023/09/19 00:29:34;;;;;;;;;;;;;;;;;;5000265;28;4961;-59
2023/09/19 00:32:00;;;;;;;;;;;;;;;;;;4990357;28;1197;-59
2023/09/19 00:34:26;;;;;;;;;;;;;;;;;;5001625;28;5074;-59
2023/09/19 00:36:53;;;;;;;;;;;;;;;;;;5001633;28;5086;-59
2023/09/19 00:39:20;;;;;;;;;;;;;;;;;;5002135;28;4465;-59
2023/09/19 00:41:45;;;;;;;;;;;;;;;;;;5007149;28;4473;-60
2023/09/19 00:44:11;;;;;;;;;;;;;;;;;;5006518;28;1065;-59
2023/09/19 00:46:37;;;;;;;;;;;;;;;;;;5007305;28;4939;-59
2023/09/19 00:49:02;;;;;;;;;;;;;;;;;;5008770;28;4670;-59
2023/09/19 00:51:27;;;;;;;;;;;;;;;;;;5006205;28;4453;-59
2023/09/19 00:53:53;;;;;;;;;;;;;;;;;;5009989;28;5196;-59
2023/09/19 00:56:18;;;;;;;;;;;;;;;;;;5008009;28;1266;-59
2023/09/19 00:58:44;;;;;;;;;;;;;;;;;;5020643;28;4712;-59
2023/09/19 01:01:11;;;;;;;;;;;;;;;;;;4991983;28;5156;-58
2023/09/19 01:03:36;;;;;;;;;;;;;;;;;;5002377;28;5042;-59
2023/09/19 01:06:02;;;;;;;;;;;;;;;;;;4997999;28;5113;-59
2023/09/19 01:08:29;;;;;;;;;;;;;;;;;;5005091;28;4973;-60
2023/09/19 01:11:03;;;;;;;;;;;;;;;;;;5008249;28;1423;-59
2023/09/19 01:13:40;;;;;;;;;;;;;;;;;;5006194;28;5368;-59
2023/09/19 01:16:11;;;;;;;;;;;;;;;;;;4992237;28;5242;-58
2023/09/19 01:19:12;;;;;;;;;;;;;;;;;;5002783;28;4436;-57
2023/09/19 01:21:56;;;;;;;;;;;;;;;;;;4929418;29;5292;-59
2023/09/19 01:24:41;;;;;;;;;;;;;;;;;;4994701;28;4862;-58
2023/09/19 01:27:26;;;;;;;;;;;;;;;;;;4973072;28;5121;-59
2023/09/19 01:29:51;;;;;;;;;;;;;;;;;;5009001;28;5537;-59
2023/09/19 01:32:19;;;;;;;;;;;;;;;;;;4992334;28;1102;-59
2023/09/19 01:34:48;;;;;;;;;;;;;;;;;;5006014;28;4449;-58
2023/09/19 01:37:14;;;;;;;;;;;;;;;;;;5004568;28;4928;-59
2023/09/19 01:39:40;;;;;;;;;;;;;;;;;;4998265;28;5023;-59
2023/09/19 01:42:10;;;;;;;;;;;;;;;;;;5006306;28;5156;-58
2023/09/19 01:44:35;;;;;;;;;;;;;;;;;;4991494;28;4878;-59
2023/09/19 01:47:01;;;;;;;;;;;;;;;;;;5003654;28;1950;-59
2023/09/19 01:49:37;;;;;;;;;;;;;;;;;;5002189;28;4452;-59
2023/09/19 01:52:12;;;;;;;;;;;;;;;;;;5008037;28;4960;-59
2023/09/19 01:54:40;;;;;;;;;;;;;;;;;;5006515;28;4924;-58
2023/09/19 01:57:28;;;;;;;;;;;;;;;;;;5002916;28;5171;-59
2023/09/19 02:00:06;;;;;;;;;;;;;;;;;;5007507;28;4645;-59
2023/09/19 02:02:31;;;;;;;;;;;;;;;;;;5009059;28;5122;-58
2023/09/19 02:04:56;;;;;;;;;;;;;;;;;;5008387;28;1272;-59
2023/09/19 02:07:22;;;;;;;;;;;;;;;;;;5004995;28;5165;-59
2023/09/19 02:09:48;;;;;;;;;;;;;;;;;;5006045;28;4742;-60
2023/09/19 02:12:15;;;;;;;;;;;;;;;;;;5001594;28;5207;-59
2023/09/19 02:14:40;;;;;;;;;;;;;;;;;;5000793;28;5209;-59
2023/09/19 02:17:11;;;;;;;;;;;;;;;;;;5001046;28;998;-59
2023/09/19 02:19:38;;;;;;;;;;;;;;;;;;5001517;28;5067;-58
2023/09/19 02:22:07;;;;;;;;;;;;;;;;;;4998227;28;5054;-58
2023/09/19 02:24:32;;;;;;;;;;;;;;;;;;4989683;28;4678;-59
2023/09/19 02:26:59;;;;;;;;;;;;;;;;;;5002901;28;4532;-58
2023/09/19 02:29:24;;;;;;;;;;;;;;;;;;5004548;28;1131;-58
2023/09/19 02:31:50;;;;;;;;;;;;;;;;;;5000185;28;4422;-58
2023/09/19 02:34:16;;;;;;;;;;;;;;;;;;5004582;28;4937;-58
2023/09/19 02:36:44;;;;;;;;;;;;;;;;;;5000623;28;4571;-59
2023/09/19 02:39:11;;;;;;;;;;;;;;;;;;5008078;28;5251;-58
2023/09/19 02:41:36;;;;;;;;;;;;;;;;;;5007880;28;5155;-59
2023/09/19 02:44:01;;;;;;;;;;;;;;;;;;5003113;28;1264;-59
2023/09/19 02:46:27;;;;;;;;;;;;;;;;;;5005530;28;5074;-58
2023/09/19 02:48:52;;;;;;;;;;;;;;;;;;5003962;28;5048;-59
2023/09/19 02:51:17;;;;;;;;;;;;;;;;;;5007301;28;5045;-59
2023/09/19 02:53:42;;;;;;;;;;;;;;;;;;4987380;28;5151;-59
2023/09/19 02:56:09;;;;;;;;;;;;;;;;;;5008024;28;1240;-59
2023/09/19 02:58:35;;;;;;;;;;;;;;;;;;5002915;28;5166;-59
2023/09/19 03:01:08;;;;;;;;;;;;;;;;;;5003877;28;5049;-59
2023/09/19 03:03:33;;;;;;;;;;;;;;;;;;4986920;28;5052;-59
2023/09/19 03:05:58;;;;;;;;;;;;;;;;;;5007728;28;5012;-59
2023/09/19 03:08:24;;;;;;;;;;;;;;;;;;5005806;28;1518;-59
2023/09/19 03:10:50;;;;;;;;;;;;;;;;;;5001577;28;4443;-59
2023/09/19 03:13:15;;;;;;;;;;;;;;;;;;5003054;28;4477;-59
2023/09/19 03:15:43;;;;;;;;;;;;;;;;;;4998390;28;4847;-59
2023/09/19 03:18:08;;;;;;;;;;;;;;;;;;5000897;28;4830;-59
2023/09/19 03:20:34;;;;;;;;;;;;;;;;;;5004098;28;4870;-59
2023/09/19 03:23:00;;;;;;;;;;;;;;;;;;5000241;28;1071;-60
2023/09/19 03:25:25;;;;;;;;;;;;;;;;;;5001918;28;4967;-59
2023/09/19 03:27:50;;;;;;;;;;;;;;;;;;5002313;28;4517;-59
2023/09/19 03:30:16;;;;;;;;;;;;;;;;;;4997710;28;4625;-59
2023/09/19 03:32:46;;;;;;;;;;;;;;;;;;5001991;28;5264;-60
2023/09/19 03:35:13;;;;;;;;;;;;;;;;;;5008033;28;1161;-59
2023/09/19 03:37:39;;;;;;;;;;;;;;;;;;5002952;28;5006;-59
2023/09/19 03:40:05;;;;;;;;;;;;;;;;;;5002781;28;5107;-59
2023/09/19 03:42:30;;;;;;;;;;;;;;;;;;5006909;28;5023;-59
2023/09/19 03:44:56;;;;;;;;;;;;;;;;;;5003024;28;4678;-59
2023/09/19 03:47:21;;;;;;;;;;;;;;;;;;4988671;28;1935;-60
2023/09/19 03:49:47;;;;;;;;;;;;;;;;;;5007150;28;4901;-59
2023/09/19 03:52:12;;;;;;;;;;;;;;;;;;5006065;28;5039;-59
2023/09/19 03:54:37;;;;;;;;;;;;;;;;;;5004410;28;5256;-59
2023/09/19 03:57:04;;;;;;;;;;;;;;;;;;5005971;28;4736;-59
2023/09/19 03:59:29;;;;;;;;;;;;;;;;;;5000849;28;5147;-60
2023/09/19 04:01:57;;;;;;;;;;;;;;;;;;5005525;28;3321;-59
2023/09/19 04:04:24;;;;;;;;;;;;;;;;;;5004190;28;5095;-60
2023/09/19 04:06:50;;;;;;;;;;;;;;;;;;5005998;28;5365;-60
2023/09/19 04:09:15;;;;;;;;;;;;;;;;;;5002199;28;4530;-60
2023/09/19 04:11:40;;;;;;;;;;;;;;;;;;5006663;28;5172;-59
2023/09/19 04:14:05;;;;;;;;;;;;;;;;;;5001970;28;3353;-60
2023/09/19 04:16:30;;;;;;;;;;;;;;;;;;5003843;28;4908;-60
2023/09/19 04:18:56;;;;;;;;;;;;;;;;;;4988613;28;4945;-59
2023/09/19 04:21:21;;;;;;;;;;;;;;;;;;5010802;28;5054;-59
2023/09/19 04:23:46;;;;;;;;;;;;;;;;;;5023710;28;5083;-59
2023/09/19 04:26:12;;;;;;;;;;;;;;;;;;5008274;28;2194;-59
2023/09/19 04:28:38;;;;;;;;;;;;;;;;;;5005282;28;5022;-60
2023/09/19 04:31:03;;;;;;;;;;;;;;;;;;5004188;28;5162;-59
2023/09/19 04:33:28;;;;;;;;;;;;;;;;;;5001817;28;5245;-61
2023/09/19 04:35:54;;;;;;;;;;;;;;;;;;5006665;28;5328;-59
2023/09/19 04:38:20;;;;;;;;;;;;;;;;;;5001500;28;3738;-59
2023/09/19 04:40:45;;;;;;;;;;;;;;;;;;5002200;28;4362;-60
2023/09/19 04:43:11;;;;;;;;;;;;;;;;;;5003597;28;5158;-59
2023/09/19 04:45:36;;;;;;;;;;;;;;;;;;4984985;28;4602;-59
2023/09/19 04:48:02;;;;;;;;;;;;;;;;;;4992324;28;4979;-60
2023/09/19 04:50:27;;;;;;;;;;;;;;;;;;5006141;28;4695;-61
2023/09/19 04:52:53;;;;;;;;;;;;;;;;;;5007607;28;4975;-60
2023/09/19 04:55:19;;;;;;;;;;;;;;;;;;5003267;28;4474;-60
2023/09/19 04:57:47;;;;;;;;;;;;;;;;;;5009094;28;4457;-60
2023/09/19 05:00:14;;;;;;;;;;;;;;;;;;5016598;28;5071;-59
2023/09/19 05:02:39;;;;;;;;;;;;;;;;;;5018552;28;4962;-59
2023/09/19 05:05:06;;;;;;;;;;;;;;;;;;5009141;28;3465;-59
2023/09/19 05:07:31;;;;;;;;;;;;;;;;;;4999911;28;5094;-59
2023/09/19 05:09:57;;;;;;;;;;;;;;;;;;5007661;28;5113;-59
2023/09/19 05:12:22;;;;;;;;;;;;;;;;;;5008669;28;5104;-59
2023/09/19 05:14:47;;;;;;;;;;;;;;;;;;5002829;28;5105;-59
2023/09/19 05:17:13;;;;;;;;;;;;;;;;;;4998418;28;3353;-59
2023/09/19 05:19:38;;;;;;;;;;;;;;;;;;5007483;28;4516;-59
2023/09/19 05:22:04;;;;;;;;;;;;;;;;;;5008325;28;4651;-61
2023/09/19 05:24:30;;;;;;;;;;;;;;;;;;4999026;28;5084;-61
2023/09/19 05:26:56;;;;;;;;;;;;;;;;;;5000579;28;5204;-59
2023/09/19 05:29:21;;;;;;;;;;;;;;;;;;5007047;28;3348;-59
2023/09/19 05:31:46;;;;;;;;;;;;;;;;;;5006401;28;5060;-59
2023/09/19 05:34:12;;;;;;;;;;;;;;;;;;5003592;28;4848;-59
2023/09/19 05:36:38;;;;;;;;;;;;;;;;;;5001131;28;5103;-59
2023/09/19 05:39:04;;;;;;;;;;;;;;;;;;4988593;28;5120;-59
2023/09/19 05:41:29;;;;;;;;;;;;;;;;;;5006720;28;5331;-60
2023/09/19 05:43:54;;;;;;;;;;;;;;;;;;5004167;28;3274;-63
2023/09/19 05:46:19;;;;;;;;;;;;;;;;;;4999852;28;5067;-62
2023/09/19 05:48:47;;;;;;;;;;;;;;;;;;5008917;28;4495;-64
2023/09/19 05:51:12;;;;;;;;;;;;;;;;;;5006693;28;5073;-62
2023/09/19 05:53:38;;;;;;;;;;;;;;;;;;4997541;28;4828;-61
2023/09/19 05:56:03;;;;;;;;;;;;;;;;;;5003202;28;3391;-61
2023/09/19 05:58:28;;;;;;;;;;;;;;;;;;5001000;28;4461;-61
2023/09/19 06:00:55;;;;;;;;;;;;;;;;;;5000187;28;5175;-63
2023/09/19 06:03:21;;;;;;;;;;;;;;;;;;5005508;28;5047;-61
2023/09/19 06:05:49;;;;;;;;;;;;;;;;;;5003668;28;4968;-63
2023/09/19 06:08:14;;;;;;;;;;;;;;;;;;5008647;28;1148;-63
2023/09/19 06:10:40;;;;;;;;;;;;;;;;;;5005481;28;5051;-62
2023/09/19 06:13:05;;;;;;;;;;;;;;;;;;5005620;28;4759;-61
2023/09/19 06:15:33;;;;;;;;;;;;;;;;;;5005320;28;5001;-62
2023/09/19 06:17:59;;;;;;;;;;;;;;;;;;5009271;28;4785;-62
2023/09/19 06:20:25;;;;;;;;;;;;;;;;;;5005190;28;1457;-62
2023/09/19 06:22:50;;;;;;;;;;;;;;;;;;5009164;28;4488;-62
2023/09/19 06:25:19;;;;;;;;;;;;;;;;;;5008320;28;4944;-62
2023/09/19 06:27:45;;;;;;;;;;;;;;;;;;5008417;28;4551;-61
2023/09/19 06:30:11;;;;;;;;;;;;;;;;;;4998984;28;5014;-62
2023/09/19 06:32:36;;;;;;;;;;;;;;;;;;5008886;28;5076;-62
2023/09/19 06:35:02;;;;;;;;;;;;;;;;;;5004555;28;1149;-62
2023/09/19 06:37:28;;;;;;;;;;;;;;;;;;5008792;28;4977;-62
2023/09/19 06:39:53;;;;;;;;;;;;;;;;;;5007551;28;5098;-62
2023/09/19 06:42:19;;;;;;;;;;;;;;;;;;5004652;28;4724;-62
2023/09/19 06:44:44;;;;;;;;;;;;;;;;;;5013773;28;5066;-62
2023/09/19 06:47:10;;;;;;;;;;;;;;;;;;4998891;28;1980;-62
2023/09/19 06:49:35;;;;;;;;;;;;;;;;;;5000250;28;4979;-63
2023/09/19 06:52:02;;;;;;;;;;;;;;;;;;5005161;28;5214;-63
2023/09/19 06:54:31;;;;;;;;;;;;;;;;;;4994536;28;5098;-63
2023/09/19 06:56:57;;;;;;;;;;;;;;;;;;5002015;28;5029;-62
2023/09/19 06:59:23;;;;;;;;;;;;;;;;;;5006523;28;1150;-62
2023/09/19 07:01:49;;;;;;;;;;;;;;;;;;4999519;28;5868;-61
2023/09/19 07:04:14;;;;;;;;;;;;;;;;;;5004396;28;4879;-62
2023/09/19 07:06:40;;;;;;;;;;;;;;;;;;5001007;28;5109;-61
2023/09/19 07:09:06;;;;;;;;;;;;;;;;;;5000185;28;5010;-62
2023/09/19 07:11:31;;;;;;;;;;;;;;;;;;5001703;28;4709;-62
2023/09/19 07:13:57;;;;;;;;;;;;;;;;;;5007504;28;1559;-62
2023/09/19 07:16:29;;;;;;;;;;;;;;;;;;5003036;28;4503;-62
2023/09/19 07:18:55;;;;;;;;;;;;;;;;;;4989518;28;5100;-62
2023/09/19 07:21:20;;;;;;;;;;;;;;;;;;5004097;28;5127;-62
2023/09/19 07:23:45;;;;;;;;;;;;;;;;;;5007255;28;5029;-62
2023/09/19 07:26:11;;;;;;;;;;;;;;;;;;5006703;28;1934;-62
2023/09/19 07:28:36;;;;;;;;;;;;;;;;;;5007332;28;4542;-62
2023/09/19 07:31:03;;;;;;;;;;;;;;;;;;5001388;28;5108;-62
2023/09/19 07:33:28;;;;;;;;;;;;;;;;;;4990151;28;4657;-63
2023/09/19 07:35:53;;;;;;;;;;;;;;;;;;5005711;28;5142;-62
2023/09/19 07:38:19;;;;;;;;;;;;;;;;;;5022439;28;1660;-63
2023/09/19 07:40:44;;;;;;;;;;;;;;;;;;4986715;28;5013;-62
2023/09/19 07:43:09;;;;;;;;;;;;;;;;;;4989490;28;5002;-62
2023/09/19 07:45:36;;;;;;;;;;;;;;;;;;4997318;28;4669;-62
2023/09/19 07:48:06;;;;;;;;;;;;;;;;;;5004275;28;4657;-62
2023/09/19 07:50:31;;;;;;;;;;;;;;;;;;5000468;28;5038;-62
2023/09/19 07:52:57;;;;;;;;;;;;;;;;;;5006992;28;5034;-62
2023/09/19 07:55:25;;;;;;;;;;;;;;;;;;5008054;28;4444;-61
2023/09/19 07:57:52;;;;;;;;;;;;;;;;;;5010989;28;4828;-61
2023/09/19 08:00:17;;;;;;;;;;;;;;;;;;5008662;28;5111;-62
2023/09/19 08:02:42;;;;;;;;;;;;;;;;;;5011222;28;4911;-62
2023/09/19 08:05:11;;;;;;;;;;;;;;;;;;5026481;28;1275;-62
2023/09/19 08:07:40;;;;;;;;;;;;;;;;;;5007608;28;4851;-61
2023/09/19 08:10:13;;;;;;;;;;;;;;;;;;5004648;28;4981;-62
2023/09/19 08:12:45;;;;;;;;;;;;;;;;;;5000626;28;4568;-61
2023/09/19 08:15:11;;;;;;;;;;;;;;;;;;5011412;28;4507;-62
2023/09/19 08:17:36;;;;;;;;;;;;;;;;;;5010648;28;5034;-62
2023/09/19 08:20:03;;;;;;;;;;;;;;;;;;5011190;28;1247;-62
2023/09/19 08:22:28;;;;;;;;;;;;;;;;;;4992870;28;5007;-63
2023/09/19 08:24:53;;;;;;;;;;;;;;;;;;5008299;28;4723;-62
2023/09/19 08:27:19;;;;;;;;;;;;;;;;;;5006974;28;4689;-63
2023/09/19 08:29:44;;;;;;;;;;;;;;;;;;5009613;28;5034;-63
2023/09/19 08:32:09;;;;;;;;;;;;;;;;;;5010850;28;2216;-63
2023/09/19 08:34:38;;;;;;;;;;;;;;;;;;5010200;28;4517;-63
2023/09/19 08:37:03;;;;;;;;;;;;;;;;;;5010545;28;5136;-63
2023/09/19 08:39:30;;;;;;;;;;;;;;;;;;5006694;28;5071;-63
2023/09/19 08:41:59;;;;;;;;;;;;;;;;;;5010446;28;4979;-63
2023/09/19 08:44:24;;;;;;;;;;;;;;;;;;5004204;28;1375;-63
2023/09/19 08:46:50;;;;;;;;;;;;;;;;;;5005547;28;4446;-63
2023/09/19 08:49:30;;;;;;;;;;;;;;;;;;5002598;28;5012;-62
2023/09/19 08:52:01;;;;;;;;;;;;;;;;;;4997710;28;5072;-61
2023/09/19 08:54:29;;;;;;;;;;;;;;;;;;5002721;28;4995;-62
2023/09/19 08:56:54;;;;;;;;;;;;;;;;;;5002703;28;4992;-62
2023/09/19 08:59:26;;;;;;;;;;;;;;;;;;5010681;28;1187;-62
2023/09/19 09:01:53;;;;;;;;;;;;;;;;;;5001670;28;4585;-63
2023/09/19 09:04:19;;;;;;;;;;;;;;;;;;5003934;28;5109;-63
2023/09/19 09:06:44;;;;;;;;;;;;;;;;;;5008683;28;5674;-63
2023/09/19 09:09:10;;;;;;;;;;;;;;;;;;5003450;28;4501;-62
2023/09/19 09:11:39;;;;;;;;;;;;;;;;;;4992000;28;5339;-63
2023/09/19 09:14:07;;;;;;;;;;;;;;;;;;5023827;28;1663;-63
2023/09/19 09:16:32;;;;;;;;;;;;;;;;;;5007676;28;5091;-63
2023/09/19 09:18:57;;;;;;;;;;;;;;;;;;5002147;28;4978;-63
2023/09/19 09:21:24;;;;;;;;;;;;;;;;;;5007919;28;5143;-63
2023/09/19 09:23:51;;;;;;;;;;;;;;;;;;4988007;28;4645;-63
2023/09/19 09:26:16;;;;;;;;;;;;;;;;;;5008242;28;2178;-63
2023/09/19 09:28:45;;;;;;;;;;;;;;;;;;5008925;28;5060;-63
2023/09/19 09:31:21;;;;;;;;;;;;;;;;;;5003694;28;4934;-63
2023/09/19 09:33:53;;;;;;;;;;;;;;;;;;5009401;28;4927;-63
2023/09/19 09:36:19;;;;;;;;;;;;;;;;;;5007820;28;4878;-63
2023/09/19 09:38:45;;;;;;;;;;;;;;;;;;5020488;28;5004;-63
2023/09/19 09:41:15;;;;;;;;;;;;;;;;;;5009684;28;1255;-64
2023/09/19 09:43:41;;;;;;;;;;;;;;;;;;5007588;28;4900;-63
2023/09/19 09:51:59;;;;;;;;;;;;;;;;;;4994397;28;5075;-63
2023/09/19 09:54:27;;;;;;;;;;;;;;;;;;4999443;28;5244;-63
2023/09/19 09:56:59;;;;;;;;;;;;;;;;;;5008583;28;4558;-63
2023/09/19 09:59:43;;;;;;;;;;;;;;;;;;5008636;28;1237;-63
2023/09/19 10:02:13;;;;;;;;;;;;;;;;;;5003751;28;5111;-63
2023/09/19 10:04:51;;;;;;;;;;;;;;;;;;5008309;28;4612;-63
2023/09/19 10:07:27;;;;;;;;;;;;;;;;;;4990528;28;5084;-63
2023/09/19 10:09:59;;;;;;;;;;;;;;;;;;5001181;28;5029;-62
2023/09/19 10:12:27;;;;;;;;;;;;;;;;;;4989560;28;4648;-61
2023/09/19 10:14:53;;;;;;;;;;;;;;;;;;5005465;28;4992;-62
2023/09/19 10:17:20;;;;;;;;;;;;;;;;;;4989242;28;1272;-61
2023/09/19 10:19:46;;;;;;;;;;;;;;;;;;5006885;28;5039;-61
2023/09/19 10:22:12;;;;;;;;;;;;;;;;;;5008180;28;5010;-62
2023/09/19 10:24:38;;;;;;;;;;;;;;;;;;5007476;28;5011;-62
2023/09/19 10:27:04;;;;;;;;;;;;;;;;;;5006831;28;4724;-62
2023/09/19 10:29:31;;;;;;;;;;;;;;;;;;5001725;28;4682;-64
2023/09/19 10:31:58;;;;;;;;;;;;;;;;;;4990449;28;1678;-62
2023/09/19 10:34:23;;;;;;;;;;;;;;;;;;5019487;28;5073;-62
2023/09/19 10:36:48;;;;;;;;;;;;;;;;;;5008111;28;5062;-61
2023/09/19 10:39:14;;;;;;;;;;;;;;;;;;5018153;28;5282;-62
2023/09/19 10:41:39;;;;;;;;;;;;;;;;;;5007285;28;4621;-62
2023/09/19 10:44:05;;;;;;;;;;;;;;;;;;5019877;28;1585;-62
2023/09/19 10:46:34;;;;;;;;;;;;;;;;;;5003700;28;4948;-62
2023/09/19 10:49:02;;;;;;;;;;;;;;;;;;5004657;28;4531;-62
2023/09/19 10:51:31;;;;;;;;;;;;;;;;;;5008139;28;4980;-62
2023/09/19 10:54:00;;;;;;;;;;;;;;;;;;5007777;28;4998;-61
2023/09/19 10:56:52;;;;;;;;;;;;;;;;;;5002209;28;1122;-62
2023/09/19 10:59:21;;;;;;;;;;;;;;;;;;5004193;28;5138;-61
2023/09/19 11:01:53;;;;;;;;;;;;;;;;;;5003323;28;4967;-62
2023/09/19 11:04:22;;;;;;;;;;;;;;;;;;5008368;28;4649;-62
2023/09/19 11:06:59;;;;;;;;;;;;;;;;;;5002714;28;5064;-62
2023/09/19 11:09:26;;;;;;;;;;;;;;;;;;5005886;28;5014;-62
2023/09/19 11:11:55;;;;;;;;;;;;;;;;;;4999555;28;4458;-62
2023/09/19 11:14:23;;;;;;;;;;;;;;;;;;5007261;28;1693;-62
2023/09/19 11:17:11;;;;;;;;;;;;;;;;;;5002933;28;4958;-62
2023/09/19 11:19:56;;;;;;;;;;;;;;;;;;5000073;28;5048;-62
2023/09/19 11:22:22;;;;;;;;;;;;;;;;;;5005486;28;4969;-62
2023/09/19 11:24:48;;;;;;;;;;;;;;;;;;4986821;28;4710;-61
2023/09/19 11:27:13;;;;;;;;;;;;;;;;;;5005436;28;4558;-62
2023/09/19 11:29:39;;;;;;;;;;;;;;;;;;5002945;28;5061;-62
2023/09/19 11:32:05;;;;;;;;;;;;;;;;;;5007307;28;1878;-62
2023/09/19 11:34:37;;;;;;;;;;;;;;;;;;5007397;28;4445;-63
2023/09/19 11:37:06;;;;;;;;;;;;;;;;;;5006968;28;4477;-63
2023/09/19 11:39:33;;;;;;;;;;;;;;;;;;4999565;28;5372;-63
2023/09/19 11:41:58;;;;;;;;;;;;;;;;;;5007273;28;5066;-63
2023/09/19 11:44:26;;;;;;;;;;;;;;;;;;4998166;28;1819;-63
2023/09/19 11:46:54;;;;;;;;;;;;;;;;;;5002768;28;4973;-63
2023/09/19 11:49:26;;;;;;;;;;;;;;;;;;5006922;28;5081;-63
2023/09/19 11:51:51;;;;;;;;;;;;;;;;;;5021534;28;5167;-62
2023/09/19 11:54:21;;;;;;;;;;;;;;;;;;5003644;28;5010;-62
2023/09/19 11:56:50;;;;;;;;;;;;;;;;;;5007291;28;4487;-62
2023/09/19 11:59:28;;;;;;;;;;;;;;;;;;5005835;28;1262;-62
2023/09/19 12:01:59;;;;;;;;;;;;;;;;;;5006725;28;4949;-62
2023/09/19 12:04:37;;;;;;;;;;;;;;;;;;5001026;28;4853;-62
2023/09/19 12:07:15;;;;;;;;;;;;;;;;;;4994439;28;4479;-62
2023/09/19 12:09:46;;;;;;;;;;;;;;;;;;5000170;28;4962;-62
2023/09/19 12:12:12;;;;;;;;;;;;;;;;;;4997859;28;4894;-62
2023/09/19 12:14:39;;;;;;;;;;;;;;;;;;5022179;28;5956;-62
2023/09/19 12:17:04;;;;;;;;;;;;;;;;;;5007215;28;2312;-62
2023/09/19 12:19:29;;;;;;;;;;;;;;;;;;5007543;28;5102;-62
2023/09/19 12:22:04;;;;;;;;;;;;;;;;;;5005481;28;5024;-62
2023/09/19 12:24:31;;;;;;;;;;;;;;;;;;5007112;28;4836;-62
2023/09/19 12:27:04;;;;;;;;;;;;;;;;;;5006811;28;5114;-63
2023/09/19 12:29:31;;;;;;;;;;;;;;;;;;4989002;28;4569;-63
2023/09/19 12:32:03;;;;;;;;;;;;;;;;;;5006787;28;1803;-62
2023/09/19 12:34:29;;;;;;;;;;;;;;;;;;5003513;28;5082;-61
2023/09/19 12:40:21;;;;;;;;;;;;;;;;;;4997989;28;5132;-62
2023/09/19 12:42:47;;;;;;;;;;;;;;;;;;5007612;28;4559;-62
2023/09/19 12:45:13;;;;;;;;;;;;;;;;;;5008291;28;4959;-62
2023/09/19 12:47:40;;;;;;;;;;;;;;;;;;4992159;28;5123;-62
2023/09/19 12:50:06;;;;;;;;;;;;;;;;;;5010204;28;1115;-62
2023/09/19 12:52:36;;;;;;;;;;;;;;;;;;5009649;28;5086;-63
2023/09/19 12:55:02;;;;;;;;;;;;;;;;;;5008033;28;4494;-63
2023/09/19 12:57:27;;;;;;;;;;;;;;;;;;5010014;28;4725;-62
2023/09/19 12:59:53;;;;;;;;;;;;;;;;;;5009378;28;4563;-62
2023/09/19 13:02:23;;;;;;;;;;;;;;;;;;5009599;28;1146;-62
2023/09/19 13:04:52;;;;;;;;;;;;;;;;;;4989010;28;4877;-62
2023/09/19 13:07:36;;;;;;;;;;;;;;;;;;5009205;28;4469;-62
2023/09/19 13:10:04;;;;;;;;;;;;;;;;;;5009610;28;5001;-63
2023/09/19 13:12:36;;;;;;;;;;;;;;;;;;5003756;28;4675;-62
2023/09/19 13:15:16;;;;;;;;;;;;;;;;;;5009416;28;5065;-62
2023/09/19 13:17:44;;;;;;;;;;;;;;;;;;5002352;28;4696;-62
2023/09/19 13:20:32;;;;;;;;;;;;;;;;;;5009876;28;1173;-63
2023/09/19 13:23:08;;;;;;;;;;;;;;;;;;5004564;28;4979;-62
2023/09/19 13:25:33;;;;;;;;;;;;;;;;;;5009612;28;4493;-62
2023/09/19 13:27:59;;;;;;;;;;;;;;;;;;5009931;28;4531;-62
2023/09/19 13:30:34;;;;;;;;;;;;;;;;;;5007149;28;5029;-63
2023/09/19 13:33:09;;;;;;;;;;;;;;;;;;4990082;28;5179;-62
2023/09/19 13:35:36;;;;;;;;;;;;;;;;;;5000712;28;4843;-61
2023/09/19 13:38:01;;;;;;;;;;;;;;;;;;5008034;28;1292;-63
2023/09/19 13:40:30;;;;;;;;;;;;;;;;;;5009560;28;5049;-62
2023/09/19 13:42:56;;;;;;;;;;;;;;;;;;5018696;28;4804;-62
2023/09/19 13:45:24;;;;;;;;;;;;;;;;;;4998444;28;5096;-62
2023/09/19 13:47:49;;;;;;;;;;;;;;;;;;4991365;28;5148;-62
2023/09/19 13:50:14;;;;;;;;;;;;;;;;;;5004889;28;1106;-62
2023/09/19 13:52:40;;;;;;;;;;;;;;;;;;5008481;28;5082;-62
2023/09/19 13:55:06;;;;;;;;;;;;;;;;;;5008790;28;4964;-62
2023/09/19 13:57:33;;;;;;;;;;;;;;;;;;4991303;28;5074;-62
2023/09/19 13:59:58;;;;;;;;;;;;;;;;;;5006085;28;4552;-62
2023/09/19 14:02:24;;;;;;;;;;;;;;;;;;5009345;28;1287;-62
2023/09/19 14:04:49;;;;;;;;;;;;;;;;;;5007744;28;5026;-61
2023/09/19 14:07:15;;;;;;;;;;;;;;;;;;4999048;28;4852;-62
2023/09/19 14:09:40;;;;;;;;;;;;;;;;;;5008615;28;5285;-62
2023/09/19 14:12:06;;;;;;;;;;;;;;;;;;5001472;28;4800;-62
2023/09/19 14:14:31;;;;;;;;;;;;;;;;;;5003187;28;5191;-62
2023/09/19 14:17:00;;;;;;;;;;;;;;;;;;5009268;28;1256;-61
2023/09/19 14:19:25;;;;;;;;;;;;;;;;;;5004755;28;5094;-62
2023/09/19 14:21:51;;;;;;;;;;;;;;;;;;5008447;28;5115;-61
2023/09/19 14:24:17;;;;;;;;;;;;;;;;;;5007168;28;5033;-63
2023/09/19 14:26:42;;;;;;;;;;;;;;;;;;5007633;28;5136;-63
2023/09/19 14:29:08;;;;;;;;;;;;;;;;;;5009283;28;1091;-62
2023/09/19 14:31:33;;;;;;;;;;;;;;;;;;5006687;28;5029;-62
2023/09/19 14:33:59;;;;;;;;;;;;;;;;;;5004372;28;4527;-62
2023/09/19 14:36:25;;;;;;;;;;;;;;;;;;5007255;28;5046;-61
2023/09/19 14:38:53;;;;;;;;;;;;;;;;;;5007048;28;5130;-62
2023/09/19 14:41:19;;;;;;;;;;;;;;;;;;5005454;28;1105;-62
2023/09/19 14:43:44;;;;;;;;;;;;;;;;;;5007190;28;4651;-62
2023/09/19 14:46:12;;;;;;;;;;;;;;;;;;5000913;28;5167;-62
2023/09/19 14:48:38;;;;;;;;;;;;;;;;;;5002726;28;5027;-62
2023/09/19 14:51:04;;;;;;;;;;;;;;;;;;5007892;28;4822;-63
2023/09/19 14:53:29;;;;;;;;;;;;;;;;;;5006240;28;5058;-62
2023/09/19 14:55:55;;;;;;;;;;;;;;;;;;5004866;28;1098;-62
2023/09/19 14:58:21;;;;;;;;;;;;;;;;;;5007539;28;4610;-62
2023/09/19 15:00:46;;;;;;;;;;;;;;;;;;5006190;28;5237;-62
2023/09/19 15:03:11;;;;;;;;;;;;;;;;;;5007682;28;4679;-63
2023/09/19 15:05:37;;;;;;;;;;;;;;;;;;4996474;28;5004;-63
2023/09/19 15:08:02;;;;;;;;;;;;;;;;;;5005575;28;1906;-62
2023/09/19 15:10:28;;;;;;;;;;;;;;;;;;4989489;28;5279;-62
2023/09/19 15:12:53;;;;;;;;;;;;;;;;;;5002557;28;4934;-62
2023/09/19 15:15:18;;;;;;;;;;;;;;;;;;5007063;28;4512;-62
2023/09/19 15:17:43;;;;;;;;;;;;;;;;;;5005961;28;4908;-62
2023/09/19 15:20:13;;;;;;;;;;;;;;;;;;5008212;28;1389;-63
2023/09/19 15:22:39;;;;;;;;;;;;;;;;;;5007277;28;4865;-62
2023/09/19 15:25:04;;;;;;;;;;;;;;;;;;5001491;28;4449;-62
2023/09/19 15:27:30;;;;;;;;;;;;;;;;;;5004485;28;4513;-64
2023/09/19 15:29:58;;;;;;;;;;;;;;;;;;5002113;28;4874;-63
2023/09/19 15:32:23;;;;;;;;;;;;;;;;;;5007997;28;1272;-63
2023/09/19 15:34:48;;;;;;;;;;;;;;;;;;5007554;28;4576;-63
2023/09/19 15:37:14;;;;;;;;;;;;;;;;;;5005134;28;4719;-61
2023/09/19 15:39:39;;;;;;;;;;;;;;;;;;5007206;28;5077;-61
2023/09/19 15:42:04;;;;;;;;;;;;;;;;;;5006288;28;4658;-62
2023/09/19 15:44:30;;;;;;;;;;;;;;;;;;5005875;28;4882;-62
2023/09/19 15:46:57;;;;;;;;;;;;;;;;;;5005088;28;1906;-62
2023/09/19 15:49:22;;;;;;;;;;;;;;;;;;5007570;28;4963;-62
2023/09/19 15:51:48;;;;;;;;;;;;;;;;;;4998923;28;5005;-61
2023/09/19 15:54:14;;;;;;;;;;;;;;;;;;5006456;28;5063;-63
2023/09/19 15:56:41;;;;;;;;;;;;;;;;;;5003122;28;5024;-62
2023/09/19 15:59:06;;;;;;;;;;;;;;;;;;5007834;28;1315;-62
2023/09/19 16:01:32;;;;;;;;;;;;;;;;;;5006474;28;4841;-63
2023/09/19 16:03:57;;;;;;;;;;;;;;;;;;5007441;28;5016;-62
2023/09/19 16:06:26;;;;;;;;;;;;;;;;;;5006168;28;5206;-62
2023/09/19 16:08:52;;;;;;;;;;;;;;;;;;5006716;28;5169;-62
2023/09/19 16:11:17;;;;;;;;;;;;;;;;;;5007256;28;1322;-62
2023/09/19 16:13:45;;;;;;;;;;;;;;;;;;5004465;28;4661;-62
2023/09/19 16:16:12;;;;;;;;;;;;;;;;;;4992929;28;5126;-63
2023/09/19 16:18:44;;;;;;;;;;;;;;;;;;5004421;28;5006;-62
2023/09/19 16:21:11;;;;;;;;;;;;;;;;;;5008354;28;5038;-62
2023/09/19 16:23:36;;;;;;;;;;;;;;;;;;5008225;28;5079;-62
2023/09/19 16:26:05;;;;;;;;;;;;;;;;;;5007430;28;1969;-63
2023/09/19 16:28:31;;;;;;;;;;;;;;;;;;5010401;28;4430;-62
2023/09/19 16:30:59;;;;;;;;;;;;;;;;;;5008691;28;5211;-62
2023/09/19 16:33:26;;;;;;;;;;;;;;;;;;5010310;28;5143;-62
2023/09/19 16:35:51;;;;;;;;;;;;;;;;;;5010515;28;5086;-62
2023/09/19 16:38:16;;;;;;;;;;;;;;;;;;5006533;28;1193;-62
2023/09/19 16:40:50;;;;;;;;;;;;;;;;;;5007077;28;5298;-62
2023/09/19 16:43:15;;;;;;;;;;;;;;;;;;5008838;28;5027;-62
2023/09/19 16:45:52;;;;;;;;;;;;;;;;;;5006189;28;5060;-62
2023/09/19 16:48:17;;;;;;;;;;;;;;;;;;5002383;28;5099;-61
2023/09/19 16:50:42;;;;;;;;;;;;;;;;;;5010183;28;5056;-62
2023/09/19 16:53:07;;;;;;;;;;;;;;;;;;5009666;28;5006;-62
2023/09/19 16:55:33;;;;;;;;;;;;;;;;;;5009771;28;4550;-63
2023/09/19 16:57:59;;;;;;;;;;;;;;;;;;5006315;28;4706;-62
2023/09/19 17:00:25;;;;;;;;;;;;;;;;;;5009827;28;4850;-63
2023/09/19 17:02:51;;;;;;;;;;;;;;;;;;5007907;28;4648;-63
2023/09/19 17:05:18;;;;;;;;;;;;;;;;;;5009400;28;1318;-63
2023/09/19 17:07:43;;;;;;;;;;;;;;;;;;4994494;28;5146;-62
2023/09/19 17:10:08;;;;;;;;;;;;;;;;;;5005123;28;4879;-63
2023/09/19 17:12:34;;;;;;;;;;;;;;;;;;5003256;28;4707;-63